sensor_id;sensor_type;location;lat;lon;timestamp;P1;durP1;ratioP1;P2;durP2;ratioP2
3443;SDS011;1736;52.068;6.968;2024-01-15T00:00:04;5.07;;;4.57;;
3443;SDS011;1736;52.068;6.968;2024-01-15T00:02:32;4.63;;;4.13;;
3443;SDS011;1736;52.068;6.968;2024-01-15T00:05:00;6.30;;;4.67;;
3443;SDS011;1736;52.068;6.968;2024-01-15T00:07:27;6.17;;;5.20;;
3443;SDS011;1736;52.068;6.968;2024-01-15T00:09:54;8.20;;;4.77;;
3443;SDS011;1736;52.068;6.968;2024-01-15T00:12:20;7.00;;;5.27;;
3443;SDS011;1736;52.068;6.968;2024-01-15T00:14:47;9.47;;;5.10;;
3443;SDS011;1736;52.068;6.968;2024-01-15T00:17:13;10.20;;;6.40;;
3443;SDS011;1736;52.068;6.968;2024-01-15T00:19:40;6.87;;;5.80;;
3443;SDS011;1736;52.068;6.968;2024-01-15T00:22:08;11.67;;;6.17;;
3443;SDS011;1736;52.068;6.968;2024-01-15T00:24:34;7.40;;;6.10;;
3443;SDS011;1736;52.068;6.968;2024-01-15T00:27:01;10.03;;;6.63;;
3443;SDS011;1736;52.068;6.968;2024-01-15T00:29:27;10.20;;;5.60;;
3443;SDS011;1736;52.068;6.968;2024-01-15T00:31:54;10.97;;;6.53;;
3443;SDS011;1736;52.068;6.968;2024-01-15T00:34:21;9.43;;;7.27;;
3443;SDS011;1736;52.068;6.968;2024-01-15T00:36:47;12.90;;;6.50;;
3443;SDS011;1736;52.068;6.968;2024-01-15T00:39:15;9.03;;;6.67;;
3443;SDS011;1736;52.068;6.968;2024-01-15T00:41:42;7.50;;;6.40;;
3443;SDS011;1736;52.068;6.968;2024-01-15T00:44:09;7.13;;;6.03;;
3443;SDS011;1736;52.068;6.968;2024-01-15T00:46:41;10.93;;;6.40;;
3443;SDS011;1736;52.068;6.968;2024-01-15T00:49:09;10.13;;;5.90;;
3443;SDS011;1736;52.068;6.968;2024-01-15T00:51:35;6.87;;;6.17;;
3443;SDS011;1736;52.068;6.968;2024-01-15T00:54:02;14.00;;;6.87;;
3443;SDS011;1736;52.068;6.968;2024-01-15T00:56:30;7.07;;;6.20;;
3443;SDS011;1736;52.068;6.968;2024-01-15T00:58:57;8.60;;;5.50;;
3443;SDS011;1736;52.068;6.968;2024-01-15T01:01:23;14.00;;;5.50;;
3443;SDS011;1736;52.068;6.968;2024-01-15T01:03:50;7.50;;;5.37;;
3443;SDS011;1736;52.068;6.968;2024-01-15T01:06:17;11.17;;;6.10;;
3443;SDS011;1736;52.068;6.968;2024-01-15T01:08:43;6.43;;;5.07;;
3443;SDS011;1736;52.068;6.968;2024-01-15T01:11:12;13.60;;;6.77;;
3443;SDS011;1736;52.068;6.968;2024-01-15T01:13:40;9.27;;;5.50;;
3443;SDS011;1736;52.068;6.968;2024-01-15T01:16:07;7.70;;;6.30;;
3443;SDS011;1736;52.068;6.968;2024-01-15T01:18:34;9.37;;;6.50;;
3443;SDS011;1736;52.068;6.968;2024-01-15T01:21:01;9.70;;;5.83;;
3443;SDS011;1736;52.068;6.968;2024-01-15T01:23:28;11.30;;;5.93;;
3443;SDS011;1736;52.068;6.968;2024-01-15T01:25:54;10.60;;;6.77;;
3443;SDS011;1736;52.068;6.968;2024-01-15T01:28:21;11.40;;;6.37;;
3443;SDS011;1736;52.068;6.968;2024-01-15T01:30:49;9.23;;;5.37;;
3443;SDS011;1736;52.068;6.968;2024-01-15T01:33:16;10.70;;;6.03;;
3443;SDS011;1736;52.068;6.968;2024-01-15T01:35:42;11.60;;;5.63;;
3443;SDS011;1736;52.068;6.968;2024-01-15T01:38:10;10.37;;;5.40;;
3443;SDS011;1736;52.068;6.968;2024-01-15T01:40:37;13.83;;;5.37;;
3443;SDS011;1736;52.068;6.968;2024-01-15T01:43:04;8.10;;;5.07;;
3443;SDS011;1736;52.068;6.968;2024-01-15T01:45:31;13.00;;;4.77;;
3443;SDS011;1736;52.068;6.968;2024-01-15T01:47:59;9.10;;;5.30;;
3443;SDS011;1736;52.068;6.968;2024-01-15T01:50:27;10.70;;;5.63;;
3443;SDS011;1736;52.068;6.968;2024-01-15T01:52:54;9.03;;;5.70;;
3443;SDS011;1736;52.068;6.968;2024-01-15T01:55:21;8.60;;;5.20;;
3443;SDS011;1736;52.068;6.968;2024-01-15T01:57:52;8.93;;;4.90;;
3443;SDS011;1736;52.068;6.968;2024-01-15T02:00:20;14.50;;;5.20;;
3443;SDS011;1736;52.068;6.968;2024-01-15T02:02:47;9.93;;;4.93;;
3443;SDS011;1736;52.068;6.968;2024-01-15T02:05:16;7.10;;;4.70;;
3443;SDS011;1736;52.068;6.968;2024-01-15T02:07:45;10.13;;;5.00;;
3443;SDS011;1736;52.068;6.968;2024-01-15T02:10:12;14.90;;;4.70;;
3443;SDS011;1736;52.068;6.968;2024-01-15T02:12:39;7.07;;;4.73;;
3443;SDS011;1736;52.068;6.968;2024-01-15T02:15:06;13.80;;;4.50;;
3443;SDS011;1736;52.068;6.968;2024-01-15T02:17:33;8.00;;;4.50;;
3443;SDS011;1736;52.068;6.968;2024-01-15T02:20:00;13.73;;;5.07;;
3443;SDS011;1736;52.068;6.968;2024-01-15T02:22:28;8.43;;;4.83;;
3443;SDS011;1736;52.068;6.968;2024-01-15T02:24:56;11.47;;;4.53;;
3443;SDS011;1736;52.068;6.968;2024-01-15T02:27:23;10.20;;;4.63;;
3443;SDS011;1736;52.068;6.968;2024-01-15T02:29:50;10.53;;;4.63;;
3443;SDS011;1736;52.068;6.968;2024-01-15T02:32:17;6.10;;;4.43;;
3443;SDS011;1736;52.068;6.968;2024-01-15T02:34:45;6.80;;;3.90;;
3443;SDS011;1736;52.068;6.968;2024-01-15T02:37:12;10.90;;;3.80;;
3443;SDS011;1736;52.068;6.968;2024-01-15T02:39:39;6.67;;;3.60;;
3443;SDS011;1736;52.068;6.968;2024-01-15T02:42:07;9.37;;;3.70;;
3443;SDS011;1736;52.068;6.968;2024-01-15T02:44:34;6.33;;;3.50;;
3443;SDS011;1736;52.068;6.968;2024-01-15T02:47:01;9.70;;;4.03;;
3443;SDS011;1736;52.068;6.968;2024-01-15T02:49:27;8.30;;;3.40;;
3443;SDS011;1736;52.068;6.968;2024-01-15T02:51:54;5.90;;;3.90;;
3443;SDS011;1736;52.068;6.968;2024-01-15T02:54:21;10.43;;;3.43;;
3443;SDS011;1736;52.068;6.968;2024-01-15T02:56:48;8.00;;;3.43;;
3443;SDS011;1736;52.068;6.968;2024-01-15T02:59:16;6.60;;;3.20;;
3443;SDS011;1736;52.068;6.968;2024-01-15T03:01:43;5.47;;;2.93;;
3443;SDS011;1736;52.068;6.968;2024-01-15T03:04:09;9.10;;;3.00;;
3443;SDS011;1736;52.068;6.968;2024-01-15T03:06:36;8.17;;;3.17;;
3443;SDS011;1736;52.068;6.968;2024-01-15T03:09:03;10.43;;;3.10;;
3443;SDS011;1736;52.068;6.968;2024-01-15T03:11:30;8.83;;;3.40;;
3443;SDS011;1736;52.068;6.968;2024-01-15T03:14:03;6.57;;;3.20;;
3443;SDS011;1736;52.068;6.968;2024-01-15T03:16:31;8.17;;;2.73;;
3443;SDS011;1736;52.068;6.968;2024-01-15T03:18:58;8.77;;;2.80;;
3443;SDS011;1736;52.068;6.968;2024-01-15T03:21:24;6.20;;;2.73;;
3443;SDS011;1736;52.068;6.968;2024-01-15T03:23:51;7.30;;;2.57;;
3443;SDS011;1736;52.068;6.968;2024-01-15T03:26:18;4.03;;;2.30;;
3443;SDS011;1736;52.068;6.968;2024-01-15T03:28:44;8.50;;;2.77;;
3443;SDS011;1736;52.068;6.968;2024-01-15T03:31:11;4.80;;;3.00;;
3443;SDS011;1736;52.068;6.968;2024-01-15T03:33:39;5.67;;;3.03;;
3443;SDS011;1736;52.068;6.968;2024-01-15T03:36:08;6.43;;;2.67;;
3443;SDS011;1736;52.068;6.968;2024-01-15T03:38:38;6.67;;;3.00;;
3443;SDS011;1736;52.068;6.968;2024-01-15T03:41:06;9.63;;;3.27;;
3443;SDS011;1736;52.068;6.968;2024-01-15T03:43:33;5.13;;;2.77;;
3443;SDS011;1736;52.068;6.968;2024-01-15T03:46:00;6.03;;;2.60;;
3443;SDS011;1736;52.068;6.968;2024-01-15T03:48:27;13.70;;;3.83;;
3443;SDS011;1736;52.068;6.968;2024-01-15T03:50:55;7.97;;;3.20;;
3443;SDS011;1736;52.068;6.968;2024-01-15T03:53:22;7.30;;;3.40;;
3443;SDS011;1736;52.068;6.968;2024-01-15T03:55:49;9.13;;;3.17;;
3443;SDS011;1736;52.068;6.968;2024-01-15T03:58:15;8.00;;;3.30;;
3443;SDS011;1736;52.068;6.968;2024-01-15T04:00:42;5.63;;;3.43;;
3443;SDS011;1736;52.068;6.968;2024-01-15T04:03:09;6.83;;;3.60;;
3443;SDS011;1736;52.068;6.968;2024-01-15T04:05:36;11.73;;;5.50;;
3443;SDS011;1736;52.068;6.968;2024-01-15T04:08:04;6.13;;;3.50;;
3443;SDS011;1736;52.068;6.968;2024-01-15T04:10:31;9.93;;;4.60;;
3443;SDS011;1736;52.068;6.968;2024-01-15T04:12:58;6.57;;;3.53;;
3443;SDS011;1736;52.068;6.968;2024-01-15T04:15:26;10.17;;;4.07;;
3443;SDS011;1736;52.068;6.968;2024-01-15T04:17:53;8.60;;;3.70;;
3443;SDS011;1736;52.068;6.968;2024-01-15T04:20:20;12.30;;;3.43;;
3443;SDS011;1736;52.068;6.968;2024-01-15T04:22:47;11.77;;;3.97;;
3443;SDS011;1736;52.068;6.968;2024-01-15T04:25:15;9.33;;;2.80;;
3443;SDS011;1736;52.068;6.968;2024-01-15T04:27:41;12.43;;;3.33;;
3443;SDS011;1736;52.068;6.968;2024-01-15T04:30:08;5.63;;;2.80;;
3443;SDS011;1736;52.068;6.968;2024-01-15T04:32:36;6.80;;;2.73;;
3443;SDS011;1736;52.068;6.968;2024-01-15T04:35:03;7.33;;;2.80;;
3443;SDS011;1736;52.068;6.968;2024-01-15T04:37:30;5.30;;;2.63;;
3443;SDS011;1736;52.068;6.968;2024-01-15T04:39:56;5.37;;;2.80;;
3443;SDS011;1736;52.068;6.968;2024-01-15T04:42:24;7.37;;;3.17;;
3443;SDS011;1736;52.068;6.968;2024-01-15T04:44:51;5.40;;;3.00;;
3443;SDS011;1736;52.068;6.968;2024-01-15T04:47:18;10.00;;;3.33;;
3443;SDS011;1736;52.068;6.968;2024-01-15T04:49:44;8.73;;;2.83;;
3443;SDS011;1736;52.068;6.968;2024-01-15T04:52:11;6.47;;;3.33;;
3443;SDS011;1736;52.068;6.968;2024-01-15T04:54:38;9.43;;;3.27;;
3443;SDS011;1736;52.068;6.968;2024-01-15T04:57:04;6.90;;;3.00;;
3443;SDS011;1736;52.068;6.968;2024-01-15T04:59:33;8.40;;;2.97;;
3443;SDS011;1736;52.068;6.968;2024-01-15T05:02:00;8.33;;;2.83;;
3443;SDS011;1736;52.068;6.968;2024-01-15T05:04:27;8.70;;;3.10;;
3443;SDS011;1736;52.068;6.968;2024-01-15T05:06:53;6.70;;;2.90;;
3443;SDS011;1736;52.068;6.968;2024-01-15T05:09:21;6.40;;;2.90;;
3443;SDS011;1736;52.068;6.968;2024-01-15T05:11:48;6.57;;;2.80;;
3443;SDS011;1736;52.068;6.968;2024-01-15T05:14:15;5.60;;;2.40;;
3443;SDS011;1736;52.068;6.968;2024-01-15T05:16:47;7.93;;;2.90;;
3443;SDS011;1736;52.068;6.968;2024-01-15T05:19:14;7.47;;;2.60;;
3443;SDS011;1736;52.068;6.968;2024-01-15T05:21:41;9.23;;;2.43;;
3443;SDS011;1736;52.068;6.968;2024-01-15T05:24:08;6.53;;;2.50;;
3443;SDS011;1736;52.068;6.968;2024-01-15T05:26:34;3.50;;;2.20;;
3443;SDS011;1736;52.068;6.968;2024-01-15T05:29:01;12.97;;;3.40;;
3443;SDS011;1736;52.068;6.968;2024-01-15T05:31:29;4.80;;;2.40;;
3443;SDS011;1736;52.068;6.968;2024-01-15T05:33:57;3.20;;;2.17;;
3443;SDS011;1736;52.068;6.968;2024-01-15T05:36:23;3.33;;;2.47;;
3443;SDS011;1736;52.068;6.968;2024-01-15T05:38:50;7.80;;;2.87;;
3443;SDS011;1736;52.068;6.968;2024-01-15T05:41:17;6.70;;;2.50;;
3443;SDS011;1736;52.068;6.968;2024-01-15T05:43:44;6.47;;;2.40;;
3443;SDS011;1736;52.068;6.968;2024-01-15T05:46:11;8.73;;;2.67;;
3443;SDS011;1736;52.068;6.968;2024-01-15T05:48:37;12.77;;;2.77;;
3443;SDS011;1736;52.068;6.968;2024-01-15T05:51:05;6.33;;;2.40;;
3443;SDS011;1736;52.068;6.968;2024-01-15T05:53:32;4.63;;;2.10;;
3443;SDS011;1736;52.068;6.968;2024-01-15T05:55:59;8.93;;;2.70;;
3443;SDS011;1736;52.068;6.968;2024-01-15T05:58:26;6.47;;;2.70;;
3443;SDS011;1736;52.068;6.968;2024-01-15T06:00:53;6.43;;;3.10;;
3443;SDS011;1736;52.068;6.968;2024-01-15T06:03:19;3.60;;;2.80;;
3443;SDS011;1736;52.068;6.968;2024-01-15T06:05:46;5.83;;;2.40;;
3443;SDS011;1736;52.068;6.968;2024-01-15T06:08:14;3.53;;;2.60;;
3443;SDS011;1736;52.068;6.968;2024-01-15T06:10:41;3.60;;;3.30;;
3443;SDS011;1736;52.068;6.968;2024-01-15T06:13:08;6.00;;;2.73;;
3443;SDS011;1736;52.068;6.968;2024-01-15T06:15:34;2.60;;;2.40;;
3443;SDS011;1736;52.068;6.968;2024-01-15T06:18:01;7.47;;;2.77;;
3443;SDS011;1736;52.068;6.968;2024-01-15T06:20:28;4.87;;;3.20;;
3443;SDS011;1736;52.068;6.968;2024-01-15T06:22:54;5.10;;;3.13;;
3443;SDS011;1736;52.068;6.968;2024-01-15T06:25:22;3.90;;;2.63;;
3443;SDS011;1736;52.068;6.968;2024-01-15T06:27:49;3.47;;;2.83;;
3443;SDS011;1736;52.068;6.968;2024-01-15T06:30:16;4.27;;;3.23;;
3443;SDS011;1736;52.068;6.968;2024-01-15T06:32:42;7.00;;;3.90;;
3443;SDS011;1736;52.068;6.968;2024-01-15T06:35:09;8.43;;;4.20;;
3443;SDS011;1736;52.068;6.968;2024-01-15T06:37:36;7.23;;;4.50;;
3443;SDS011;1736;52.068;6.968;2024-01-15T06:40:03;11.27;;;5.00;;
3443;SDS011;1736;52.068;6.968;2024-01-15T06:42:32;6.10;;;4.60;;
3443;SDS011;1736;52.068;6.968;2024-01-15T06:44:59;5.40;;;4.77;;
3443;SDS011;1736;52.068;6.968;2024-01-15T06:47:26;11.37;;;5.37;;
3443;SDS011;1736;52.068;6.968;2024-01-15T06:49:52;9.93;;;5.30;;
3443;SDS011;1736;52.068;6.968;2024-01-15T06:52:20;10.23;;;6.00;;
3443;SDS011;1736;52.068;6.968;2024-01-15T06:54:46;11.80;;;6.30;;
3443;SDS011;1736;52.068;6.968;2024-01-15T06:57:13;13.80;;;6.77;;
3443;SDS011;1736;52.068;6.968;2024-01-15T06:59:41;10.20;;;7.33;;
3443;SDS011;1736;52.068;6.968;2024-01-15T07:02:07;10.40;;;6.93;;
3443;SDS011;1736;52.068;6.968;2024-01-15T07:04:34;14.30;;;8.17;;
3443;SDS011;1736;52.068;6.968;2024-01-15T07:07:01;9.40;;;7.40;;
3443;SDS011;1736;52.068;6.968;2024-01-15T07:09:27;11.10;;;8.10;;
3443;SDS011;1736;52.068;6.968;2024-01-15T07:11:54;13.77;;;8.23;;
3443;SDS011;1736;52.068;6.968;2024-01-15T07:14:22;11.80;;;8.53;;
3443;SDS011;1736;52.068;6.968;2024-01-15T07:16:50;15.80;;;8.30;;
3443;SDS011;1736;52.068;6.968;2024-01-15T07:19:16;14.23;;;9.00;;
3443;SDS011;1736;52.068;6.968;2024-01-15T07:21:43;9.73;;;7.57;;
3443;SDS011;1736;52.068;6.968;2024-01-15T07:24:09;12.20;;;7.50;;
3443;SDS011;1736;52.068;6.968;2024-01-15T07:26:36;8.93;;;6.97;;
3443;SDS011;1736;52.068;6.968;2024-01-15T07:29:03;12.70;;;7.40;;
3443;SDS011;1736;52.068;6.968;2024-01-15T07:31:30;12.80;;;7.30;;
3443;SDS011;1736;52.068;6.968;2024-01-15T07:33:59;7.90;;;6.60;;
3443;SDS011;1736;52.068;6.968;2024-01-15T07:36:25;10.30;;;6.20;;
3443;SDS011;1736;52.068;6.968;2024-01-15T07:38:52;9.97;;;6.33;;
3443;SDS011;1736;52.068;6.968;2024-01-15T07:41:18;8.00;;;6.10;;
3443;SDS011;1736;52.068;6.968;2024-01-15T07:43:45;11.33;;;6.33;;
3443;SDS011;1736;52.068;6.968;2024-01-15T07:46:12;13.70;;;7.00;;
3443;SDS011;1736;52.068;6.968;2024-01-15T07:48:38;8.30;;;6.40;;
3443;SDS011;1736;52.068;6.968;2024-01-15T07:51:06;11.43;;;6.63;;
3443;SDS011;1736;52.068;6.968;2024-01-15T07:53:33;8.57;;;6.17;;
3443;SDS011;1736;52.068;6.968;2024-01-15T07:55:59;12.93;;;6.57;;
3443;SDS011;1736;52.068;6.968;2024-01-15T07:58:26;11.20;;;6.10;;
3443;SDS011;1736;52.068;6.968;2024-01-15T08:00:52;10.37;;;6.13;;
3443;SDS011;1736;52.068;6.968;2024-01-15T08:03:19;8.77;;;5.60;;
3443;SDS011;1736;52.068;6.968;2024-01-15T08:05:45;8.83;;;6.03;;
3443;SDS011;1736;52.068;6.968;2024-01-15T08:08:14;6.03;;;5.47;;
3443;SDS011;1736;52.068;6.968;2024-01-15T08:10:40;7.53;;;5.57;;
3443;SDS011;1736;52.068;6.968;2024-01-15T08:13:07;6.37;;;5.57;;
3443;SDS011;1736;52.068;6.968;2024-01-15T08:15:36;6.63;;;5.73;;
3443;SDS011;1736;52.068;6.968;2024-01-15T08:18:03;8.30;;;5.43;;
3443;SDS011;1736;52.068;6.968;2024-01-15T08:20:30;6.23;;;5.30;;
3443;SDS011;1736;52.068;6.968;2024-01-15T08:22:57;9.37;;;5.40;;
3443;SDS011;1736;52.068;6.968;2024-01-15T08:25:24;8.27;;;6.10;;
3443;SDS011;1736;52.068;6.968;2024-01-15T08:27:52;7.43;;;6.10;;
3443;SDS011;1736;52.068;6.968;2024-01-15T08:30:18;6.60;;;5.90;;
3443;SDS011;1736;52.068;6.968;2024-01-15T08:32:45;9.13;;;6.10;;
3443;SDS011;1736;52.068;6.968;2024-01-15T08:35:12;9.63;;;7.40;;
3443;SDS011;1736;52.068;6.968;2024-01-15T08:37:38;12.17;;;6.77;;
3443;SDS011;1736;52.068;6.968;2024-01-15T08:40:05;7.70;;;6.00;;
3443;SDS011;1736;52.068;6.968;2024-01-15T08:42:33;7.90;;;6.50;;
3443;SDS011;1736;52.068;6.968;2024-01-15T08:45:00;6.93;;;6.20;;
3443;SDS011;1736;52.068;6.968;2024-01-15T08:47:27;10.33;;;6.17;;
3443;SDS011;1736;52.068;6.968;2024-01-15T08:49:53;6.97;;;5.17;;
3443;SDS011;1736;52.068;6.968;2024-01-15T08:52:20;6.00;;;5.13;;
3443;SDS011;1736;52.068;6.968;2024-01-15T08:54:46;9.00;;;5.47;;
3443;SDS011;1736;52.068;6.968;2024-01-15T08:57:13;5.93;;;5.00;;
3443;SDS011;1736;52.068;6.968;2024-01-15T08:59:41;7.90;;;5.10;;
3443;SDS011;1736;52.068;6.968;2024-01-15T09:02:08;8.17;;;5.17;;
3443;SDS011;1736;52.068;6.968;2024-01-15T09:04:34;8.53;;;5.33;;
3443;SDS011;1736;52.068;6.968;2024-01-15T09:07:01;7.17;;;5.60;;
3443;SDS011;1736;52.068;6.968;2024-01-15T09:09:28;7.10;;;5.23;;
3443;SDS011;1736;52.068;6.968;2024-01-15T09:11:54;8.97;;;5.93;;
3443;SDS011;1736;52.068;6.968;2024-01-15T09:14:21;8.30;;;5.77;;
3443;SDS011;1736;52.068;6.968;2024-01-15T09:16:50;7.10;;;5.73;;
3443;SDS011;1736;52.068;6.968;2024-01-15T09:19:17;7.00;;;6.10;;
3443;SDS011;1736;52.068;6.968;2024-01-15T09:21:43;7.17;;;6.30;;
3443;SDS011;1736;52.068;6.968;2024-01-15T09:24:10;8.67;;;6.50;;
3443;SDS011;1736;52.068;6.968;2024-01-15T09:26:37;16.03;;;7.00;;
3443;SDS011;1736;52.068;6.968;2024-01-15T09:29:03;7.43;;;6.20;;
3443;SDS011;1736;52.068;6.968;2024-01-15T09:31:30;8.50;;;6.73;;
3443;SDS011;1736;52.068;6.968;2024-01-15T09:33:58;7.90;;;6.30;;
3443;SDS011;1736;52.068;6.968;2024-01-15T09:36:25;7.90;;;6.60;;
3443;SDS011;1736;52.068;6.968;2024-01-15T09:38:52;8.27;;;6.80;;
3443;SDS011;1736;52.068;6.968;2024-01-15T09:41:18;8.40;;;7.47;;
3443;SDS011;1736;52.068;6.968;2024-01-15T09:43:45;9.13;;;7.93;;
3443;SDS011;1736;52.068;6.968;2024-01-15T09:46:12;11.63;;;7.87;;
3443;SDS011;1736;52.068;6.968;2024-01-15T09:48:39;7.67;;;6.77;;
3443;SDS011;1736;52.068;6.968;2024-01-15T09:51:07;8.43;;;6.90;;
3443;SDS011;1736;52.068;6.968;2024-01-15T09:53:34;9.30;;;7.47;;
3443;SDS011;1736;52.068;6.968;2024-01-15T09:56:02;7.50;;;6.70;;
3443;SDS011;1736;52.068;6.968;2024-01-15T09:58:30;8.97;;;7.40;;
3443;SDS011;1736;52.068;6.968;2024-01-15T10:00:57;8.90;;;7.40;;
3443;SDS011;1736;52.068;6.968;2024-01-15T10:03:26;8.43;;;6.80;;
3443;SDS011;1736;52.068;6.968;2024-01-15T10:05:52;8.37;;;6.10;;
3443;SDS011;1736;52.068;6.968;2024-01-15T10:08:21;8.17;;;6.27;;
3443;SDS011;1736;52.068;6.968;2024-01-15T10:10:50;6.90;;;6.20;;
3443;SDS011;1736;52.068;6.968;2024-01-15T10:13:17;10.33;;;6.37;;
3443;SDS011;1736;52.068;6.968;2024-01-15T10:15:45;8.07;;;6.20;;
3443;SDS011;1736;52.068;6.968;2024-01-15T10:18:11;6.00;;;5.50;;
3443;SDS011;1736;52.068;6.968;2024-01-15T10:20:39;7.17;;;5.47;;
3443;SDS011;1736;52.068;6.968;2024-01-15T10:23:06;5.60;;;5.10;;
3443;SDS011;1736;52.068;6.968;2024-01-15T10:25:34;6.37;;;5.03;;
3443;SDS011;1736;52.068;6.968;2024-01-15T10:28:02;6.13;;;4.93;;
3443;SDS011;1736;52.068;6.968;2024-01-15T10:30:30;5.60;;;5.00;;
3443;SDS011;1736;52.068;6.968;2024-01-15T10:32:59;5.03;;;4.53;;
3443;SDS011;1736;52.068;6.968;2024-01-15T10:35:27;7.20;;;5.23;;
3443;SDS011;1736;52.068;6.968;2024-01-15T10:37:55;6.20;;;4.90;;
3443;SDS011;1736;52.068;6.968;2024-01-15T10:40:21;5.53;;;4.47;;
3443;SDS011;1736;52.068;6.968;2024-01-15T10:42:50;4.60;;;4.20;;
3443;SDS011;1736;52.068;6.968;2024-01-15T10:45:16;6.87;;;4.97;;
3443;SDS011;1736;52.068;6.968;2024-01-15T10:47:43;5.10;;;4.50;;
3443;SDS011;1736;52.068;6.968;2024-01-15T10:50:11;9.50;;;5.07;;
3443;SDS011;1736;52.068;6.968;2024-01-15T10:52:39;7.03;;;4.10;;
3443;SDS011;1736;52.068;6.968;2024-01-15T10:55:07;5.23;;;4.30;;
3443;SDS011;1736;52.068;6.968;2024-01-15T10:57:35;4.30;;;4.00;;
3443;SDS011;1736;52.068;6.968;2024-01-15T11:00:05;4.17;;;3.70;;
3443;SDS011;1736;52.068;6.968;2024-01-15T11:02:34;4.57;;;3.83;;
3443;SDS011;1736;52.068;6.968;2024-01-15T11:05:02;3.90;;;3.50;;
3443;SDS011;1736;52.068;6.968;2024-01-15T11:07:29;5.20;;;4.33;;
3443;SDS011;1736;52.068;6.968;2024-01-15T11:09:56;4.07;;;3.67;;
3443;SDS011;1736;52.068;6.968;2024-01-15T11:12:23;4.83;;;4.10;;
3443;SDS011;1736;52.068;6.968;2024-01-15T11:14:50;4.57;;;4.17;;
3443;SDS011;1736;52.068;6.968;2024-01-15T11:17:21;7.43;;;3.50;;
3443;SDS011;1736;52.068;6.968;2024-01-15T11:19:48;5.03;;;3.90;;
3443;SDS011;1736;52.068;6.968;2024-01-15T11:25:24;8.20;;;3.60;;
3443;SDS011;1736;52.068;6.968;2024-01-15T11:28:01;4.40;;;3.70;;
3443;SDS011;1736;52.068;6.968;2024-01-15T11:30:28;4.23;;;3.80;;
3443;SDS011;1736;52.068;6.968;2024-01-15T11:32:55;6.70;;;4.13;;
3443;SDS011;1736;52.068;6.968;2024-01-15T11:35:22;8.60;;;4.10;;
3443;SDS011;1736;52.068;6.968;2024-01-15T11:37:58;4.23;;;3.80;;
3443;SDS011;1736;52.068;6.968;2024-01-15T11:40:39;7.00;;;3.97;;
3443;SDS011;1736;52.068;6.968;2024-01-15T11:43:07;6.93;;;4.07;;
3443;SDS011;1736;52.068;6.968;2024-01-15T11:45:35;4.67;;;4.03;;
3443;SDS011;1736;52.068;6.968;2024-01-15T11:48:13;6.40;;;3.80;;
3443;SDS011;1736;52.068;6.968;2024-01-15T11:50:42;6.40;;;3.93;;
3443;SDS011;1736;52.068;6.968;2024-01-15T11:53:14;8.03;;;3.60;;
3443;SDS011;1736;52.068;6.968;2024-01-15T11:55:44;6.13;;;3.67;;
3443;SDS011;1736;52.068;6.968;2024-01-15T11:58:13;5.47;;;3.40;;
3443;SDS011;1736;52.068;6.968;2024-01-15T12:00:42;5.30;;;3.03;;
3443;SDS011;1736;52.068;6.968;2024-01-15T12:03:09;11.33;;;4.60;;
3443;SDS011;1736;52.068;6.968;2024-01-15T12:05:38;3.37;;;3.07;;
3443;SDS011;1736;52.068;6.968;2024-01-15T12:08:05;3.73;;;3.30;;
3443;SDS011;1736;52.068;6.968;2024-01-15T12:10:35;3.20;;;2.90;;
3443;SDS011;1736;52.068;6.968;2024-01-15T12:13:04;3.97;;;2.90;;
3443;SDS011;1736;52.068;6.968;2024-01-15T12:15:32;3.33;;;2.60;;
3443;SDS011;1736;52.068;6.968;2024-01-15T12:17:59;5.40;;;2.70;;
3443;SDS011;1736;52.068;6.968;2024-01-15T12:20:27;3.33;;;2.90;;
3443;SDS011;1736;52.068;6.968;2024-01-15T12:22:56;4.50;;;2.60;;
3443;SDS011;1736;52.068;6.968;2024-01-15T12:25:23;4.97;;;2.77;;
3443;SDS011;1736;52.068;6.968;2024-01-15T12:27:52;2.43;;;2.23;;
3443;SDS011;1736;52.068;6.968;2024-01-15T12:30:19;5.50;;;2.97;;
3443;SDS011;1736;52.068;6.968;2024-01-15T12:32:46;2.90;;;2.57;;
3443;SDS011;1736;52.068;6.968;2024-01-15T12:35:13;4.63;;;2.97;;
3443;SDS011;1736;52.068;6.968;2024-01-15T12:37:41;3.90;;;2.43;;
3443;SDS011;1736;52.068;6.968;2024-01-15T12:40:10;6.07;;;3.30;;
3443;SDS011;1736;52.068;6.968;2024-01-15T12:42:37;4.23;;;2.43;;
3443;SDS011;1736;52.068;6.968;2024-01-15T12:45:05;3.90;;;2.67;;
3443;SDS011;1736;52.068;6.968;2024-01-15T12:47:33;4.93;;;2.80;;
3443;SDS011;1736;52.068;6.968;2024-01-15T12:50:00;3.73;;;2.80;;
3443;SDS011;1736;52.068;6.968;2024-01-15T12:52:26;3.83;;;2.90;;
3443;SDS011;1736;52.068;6.968;2024-01-15T12:54:53;2.70;;;2.50;;
3443;SDS011;1736;52.068;6.968;2024-01-15T12:57:21;2.50;;;2.30;;
3443;SDS011;1736;52.068;6.968;2024-01-15T12:59:48;3.30;;;2.80;;
3443;SDS011;1736;52.068;6.968;2024-01-15T13:02:16;2.40;;;2.20;;
3443;SDS011;1736;52.068;6.968;2024-01-15T13:04:43;2.60;;;2.37;;
3443;SDS011;1736;52.068;6.968;2024-01-15T13:07:09;2.47;;;2.27;;
3443;SDS011;1736;52.068;6.968;2024-01-15T13:09:36;4.30;;;2.07;;
3443;SDS011;1736;52.068;6.968;2024-01-15T13:12:01;2.00;;;1.90;;
3443;SDS011;1736;52.068;6.968;2024-01-15T13:14:30;2.20;;;2.00;;
3443;SDS011;1736;52.068;6.968;2024-01-15T13:16:56;2.60;;;2.30;;
3443;SDS011;1736;52.068;6.968;2024-01-15T13:19:24;2.97;;;1.53;;
3443;SDS011;1736;52.068;6.968;2024-01-15T13:21:51;3.53;;;1.73;;
3443;SDS011;1736;52.068;6.968;2024-01-15T13:24:18;1.90;;;1.80;;
3443;SDS011;1736;52.068;6.968;2024-01-15T13:26:45;1.70;;;1.60;;
3443;SDS011;1736;52.068;6.968;2024-01-15T13:29:12;3.87;;;1.93;;
3443;SDS011;1736;52.068;6.968;2024-01-15T13:31:41;4.83;;;2.10;;
3443;SDS011;1736;52.068;6.968;2024-01-15T13:34:08;3.37;;;2.20;;
3443;SDS011;1736;52.068;6.968;2024-01-15T13:36:35;3.60;;;2.00;;
3443;SDS011;1736;52.068;6.968;2024-01-15T13:39:04;2.80;;;2.03;;
3443;SDS011;1736;52.068;6.968;2024-01-15T13:41:33;4.73;;;2.47;;
3443;SDS011;1736;52.068;6.968;2024-01-15T13:44:00;6.10;;;2.33;;
3443;SDS011;1736;52.068;6.968;2024-01-15T13:46:28;3.93;;;1.80;;
3443;SDS011;1736;52.068;6.968;2024-01-15T13:48:56;2.20;;;2.00;;
3443;SDS011;1736;52.068;6.968;2024-01-15T13:51:23;5.50;;;2.07;;
3443;SDS011;1736;52.068;6.968;2024-01-15T13:53:50;2.53;;;1.70;;
3443;SDS011;1736;52.068;6.968;2024-01-15T13:56:16;3.63;;;1.93;;
3443;SDS011;1736;52.068;6.968;2024-01-15T13:58:43;2.20;;;1.80;;
3443;SDS011;1736;52.068;6.968;2024-01-15T14:01:10;2.87;;;2.00;;
3443;SDS011;1736;52.068;6.968;2024-01-15T14:03:37;6.53;;;2.20;;
3443;SDS011;1736;52.068;6.968;2024-01-15T14:06:05;6.40;;;1.90;;
3443;SDS011;1736;52.068;6.968;2024-01-15T14:08:34;5.17;;;2.40;;
3443;SDS011;1736;52.068;6.968;2024-01-15T14:11:01;2.30;;;2.10;;
3443;SDS011;1736;52.068;6.968;2024-01-15T14:13:28;6.43;;;2.17;;
3443;SDS011;1736;52.068;6.968;2024-01-15T14:15:55;3.20;;;2.07;;
3443;SDS011;1736;52.068;6.968;2024-01-15T14:18:21;5.03;;;2.17;;
3443;SDS011;1736;52.068;6.968;2024-01-15T14:20:48;4.97;;;2.50;;
3443;SDS011;1736;52.068;6.968;2024-01-15T14:23:16;5.63;;;2.63;;
3443;SDS011;1736;52.068;6.968;2024-01-15T14:25:42;4.83;;;2.10;;
3443;SDS011;1736;52.068;6.968;2024-01-15T14:28:09;3.60;;;2.10;;
3443;SDS011;1736;52.068;6.968;2024-01-15T14:30:36;3.80;;;1.73;;
3443;SDS011;1736;52.068;6.968;2024-01-15T14:33:03;8.83;;;2.70;;
3443;SDS011;1736;52.068;6.968;2024-01-15T14:35:29;6.13;;;2.30;;
3443;SDS011;1736;52.068;6.968;2024-01-15T14:37:56;15.93;;;7.87;;
3443;SDS011;1736;52.068;6.968;2024-01-15T14:40:24;8.87;;;3.47;;
3443;SDS011;1736;52.068;6.968;2024-01-15T14:42:51;7.30;;;2.60;;
3443;SDS011;1736;52.068;6.968;2024-01-15T14:45:18;6.33;;;2.90;;
3443;SDS011;1736;52.068;6.968;2024-01-15T14:47:44;7.20;;;2.40;;
3443;SDS011;1736;52.068;6.968;2024-01-15T14:50:11;6.70;;;2.10;;
3443;SDS011;1736;52.068;6.968;2024-01-15T14:52:38;7.00;;;2.83;;
3443;SDS011;1736;52.068;6.968;2024-01-15T14:55:07;7.03;;;2.73;;
3443;SDS011;1736;52.068;6.968;2024-01-15T14:57:36;9.70;;;2.90;;
3443;SDS011;1736;52.068;6.968;2024-01-15T15:00:03;8.97;;;2.90;;
3443;SDS011;1736;52.068;6.968;2024-01-15T15:02:32;4.27;;;2.10;;
3443;SDS011;1736;52.068;6.968;2024-01-15T15:04:59;5.23;;;1.90;;
3443;SDS011;1736;52.068;6.968;2024-01-15T15:07:26;8.07;;;2.57;;
3443;SDS011;1736;52.068;6.968;2024-01-15T15:09:53;7.43;;;2.33;;
3443;SDS011;1736;52.068;6.968;2024-01-15T15:12:19;3.87;;;1.80;;
3443;SDS011;1736;52.068;6.968;2024-01-15T15:14:47;6.40;;;2.50;;